createdAt,value
2018-07-31T00:02:31.251Z,60.50
2018-07-31T00:07:33.733Z,60.00
2018-07-31T00:12:36.260Z,60.40
2018-07-31T00:17:38.756Z,60.60
2018-07-31T00:22:41.364Z,60.60
2018-07-31T00:27:43.866Z,60.80
2018-07-31T00:32:46.358Z,61.20
2018-07-31T00:37:48.856Z,61.70
2018-07-31T00:42:52.101Z,61.90
2018-07-31T00:47:54.594Z,61.70
2018-07-31T00:52:57.098Z,62.20
2018-07-31T00:57:59.590Z,62.40
2018-07-31T01:03:02.073Z,62.60
2018-07-31T01:08:04.558Z,62.80
2018-07-31T01:13:07.809Z,63.10
2018-07-31T01:18:10.369Z,63.10
2018-07-31T01:23:13.688Z,63.20
2018-07-31T01:28:17.012Z,63.20
2018-07-31T01:33:19.502Z,63.20
2018-07-31T01:38:22.005Z,63.80
2018-07-31T01:43:24.495Z,63.60
2018-07-31T01:48:27.741Z,64.20
2018-07-31T01:53:30.240Z,64.20
2018-07-31T01:58:32.705Z,64.70
2018-07-31T02:03:35.184Z,64.50
2018-07-31T02:08:37.676Z,64.60
2018-07-31T02:13:40.199Z,64.90
2018-07-31T02:18:42.657Z,65.00
2018-07-31T02:23:45.137Z,65.20
2018-07-31T02:28:47.621Z,64.70
2018-07-31T02:33:50.106Z,64.80
2018-07-31T02:38:52.585Z,65.50
2018-07-31T02:43:55.073Z,65.80
2018-07-31T02:48:57.557Z,66.20
2018-07-31T02:54:00.049Z,65.70
2018-07-31T02:59:02.534Z,66.40
2018-07-31T03:04:05.031Z,66.70
2018-07-31T03:09:07.509Z,66.70
2018-07-31T03:14:09.997Z,66.60
2018-07-31T03:19:12.496Z,66.80
2018-07-31T03:24:14.978Z,66.40
2018-07-31T03:29:17.490Z,66.90
2018-07-31T03:34:19.973Z,67.20
2018-07-31T03:39:22.480Z,66.90
2018-07-31T03:44:24.980Z,66.90
2018-07-31T03:49:27.464Z,66.60
2018-07-31T03:54:29.957Z,67.60
2018-07-31T03:59:33.220Z,67.40
2018-07-31T04:04:35.731Z,67.40
2018-07-31T04:09:38.255Z,67.30
2018-07-31T04:14:40.758Z,67.90
2018-07-31T04:19:44.092Z,68.10
2018-07-31T04:24:46.592Z,68.10
2018-07-31T04:29:49.085Z,68.40
2018-07-31T04:34:51.568Z,68.40
2018-07-31T04:39:54.824Z,68.60
2018-07-31T04:44:57.314Z,68.60
2018-07-31T04:49:59.796Z,69.10
2018-07-31T04:55:02.293Z,68.90
2018-07-31T05:00:04.793Z,68.80
2018-07-31T05:05:07.273Z,69.60
2018-07-31T05:10:09.769Z,70.10
2018-07-31T05:15:12.373Z,70.20
2018-07-31T05:20:14.965Z,70.00
2018-07-31T05:25:17.498Z,70.00
2018-07-31T05:30:19.963Z,70.20
2018-07-31T05:35:22.458Z,69.90
2018-07-31T05:40:24.966Z,69.60
2018-07-31T05:45:28.184Z,69.60
2018-07-31T05:50:31.445Z,70.10
2018-07-31T05:55:34.500Z,70.00
2018-07-31T06:00:36.989Z,70.50
2018-07-31T06:05:39.494Z,71.30
2018-07-31T06:10:42.753Z,69.80
2018-07-31T06:15:45.233Z,69.70
2018-07-31T06:20:47.715Z,69.00
2018-07-31T06:25:50.199Z,68.70
2018-07-31T06:30:52.778Z,67.10
2018-07-31T06:35:55.738Z,67.30
2018-07-31T06:40:58.213Z,66.20
2018-07-31T06:46:00.881Z,65.10
2018-07-31T06:51:03.523Z,63.80
2018-07-31T06:56:06.106Z,63.10
2018-07-31T07:01:08.580Z,62.30
2018-07-31T07:06:11.483Z,61.60
2018-07-31T07:11:13.953Z,60.50
2018-07-31T07:16:16.437Z,59.60
2018-07-31T07:21:18.918Z,59.30
2018-07-31T07:26:21.404Z,58.30
2018-07-31T07:31:23.888Z,57.70
2018-07-31T07:36:26.372Z,57.20
2018-07-31T07:41:29.330Z,57.20
2018-07-31T07:46:32.561Z,55.30
2018-07-31T07:51:35.041Z,55.30
2018-07-31T07:56:38.330Z,54.50
2018-07-31T08:01:40.792Z,54.10
2018-07-31T08:06:43.281Z,53.20
2018-07-31T08:11:45.760Z,52.80
2018-07-31T08:16:48.644Z,52.50
2018-07-31T08:21:51.650Z,51.90
2018-07-31T08:26:54.100Z,51.40
2018-07-31T08:31:56.592Z,50.10
2018-07-31T08:36:59.068Z,50.30
2018-07-31T08:42:01.548Z,50.10
2018-07-31T08:47:04.836Z,49.70
2018-07-31T08:52:07.494Z,49.20
2018-07-31T08:57:10.161Z,48.40
2018-07-31T09:02:13.527Z,48.50
2018-07-31T09:07:16.840Z,48.30
2018-07-31T09:12:19.389Z,48.30
2018-07-31T09:17:21.876Z,48.30
2018-07-31T09:22:24.821Z,47.00
2018-07-31T09:27:27.492Z,45.70
2018-07-31T09:32:31.634Z,45.50
2018-07-31T09:37:34.335Z,45.50
2018-07-31T09:42:36.820Z,44.30
2018-07-31T09:47:39.298Z,44.30
2018-07-31T09:52:41.770Z,43.10
2018-07-31T09:57:44.250Z,42.90
2018-07-31T10:02:46.741Z,42.70
2018-07-31T10:07:49.245Z,42.90
2018-07-31T10:12:51.732Z,42.50
2018-07-31T10:17:54.235Z,39.60
2018-07-31T10:22:57.467Z,40.60
2018-07-31T10:27:59.944Z,40.50
2018-07-31T10:33:02.424Z,41.10
2018-07-31T10:38:04.914Z,40.20
2018-07-31T10:43:07.392Z,40.00
2018-07-31T10:48:09.883Z,40.00
2018-07-31T10:53:12.373Z,40.30
2018-07-31T10:58:14.966Z,39.00
2018-07-31T11:03:17.337Z,39.60
2018-07-31T11:08:19.824Z,39.30
2018-07-31T11:13:22.358Z,37.40
2018-07-31T11:18:24.796Z,39.60
2018-07-31T11:23:27.264Z,40.20
2018-07-31T11:28:29.744Z,37.90
2018-07-31T11:33:32.224Z,36.80
2018-07-31T11:38:34.714Z,36.70
2018-07-31T11:43:37.197Z,35.10
2018-07-31T11:48:39.685Z,35.30
2018-07-31T11:53:42.172Z,34.40
2018-07-31T11:58:44.644Z,34.40
2018-07-31T12:03:47.133Z,34.50
2018-07-31T12:08:49.613Z,34.10
2018-07-31T12:13:52.129Z,33.70
2018-07-31T12:18:54.581Z,34.60
2018-07-31T12:23:57.064Z,34.20
2018-07-31T12:28:59.681Z,32.50
2018-07-31T12:34:02.184Z,33.00
2018-07-31T12:39:04.664Z,33.00
2018-07-31T12:44:07.988Z,32.90
2018-07-31T12:49:10.715Z,32.80
2018-07-31T12:54:13.198Z,32.70
2018-07-31T12:59:15.682Z,32.40
2018-07-31T13:04:18.479Z,32.20
2018-07-31T13:09:20.965Z,32.40
2018-07-31T13:14:24.234Z,31.50
2018-07-31T13:19:26.721Z,31.50
2018-07-31T13:24:29.213Z,31.50
2018-07-31T13:29:31.701Z,31.20
2018-07-31T13:34:34.189Z,31.70
2018-07-31T13:39:36.674Z,30.80
2018-07-31T13:44:40.298Z,30.90
2018-07-31T13:49:42.796Z,30.80
2018-07-31T13:54:45.280Z,30.70
2018-07-31T13:59:47.769Z,31.30
2018-07-31T14:04:50.507Z,30.70
2018-07-31T14:09:53.003Z,30.20
2018-07-31T14:14:55.481Z,30.10
2018-07-31T14:19:58.724Z,30.60
2018-07-31T14:25:01.214Z,30.60
2018-07-31T14:30:03.701Z,30.90
2018-07-31T14:35:06.181Z,30.70
2018-07-31T14:40:09.678Z,29.90
2018-07-31T14:45:12.156Z,30.10
2018-07-31T14:50:14.653Z,30.00
2018-07-31T14:55:17.140Z,31.30
2018-07-31T15:00:19.642Z,32.00
2018-07-31T15:05:22.136Z,32.80
2018-07-31T15:10:24.625Z,33.20
2018-07-31T15:15:27.109Z,33.40
2018-07-31T15:20:29.595Z,33.80
2018-07-31T15:25:32.849Z,34.60
2018-07-31T15:30:35.328Z,34.50
2018-07-31T15:35:37.815Z,35.10
2018-07-31T15:40:40.296Z,35.50
2018-07-31T15:45:42.774Z,35.50
2018-07-31T15:50:45.257Z,36.10
2018-07-31T15:55:47.748Z,36.40
2018-07-31T16:00:50.236Z,36.10
2018-07-31T16:05:52.885Z,37.00
2018-07-31T16:10:55.328Z,37.30
2018-07-31T16:15:57.825Z,37.30
2018-07-31T16:21:00.305Z,36.30
2018-07-31T16:26:02.800Z,36.70
2018-07-31T16:31:06.030Z,36.80
2018-07-31T16:36:08.527Z,36.70
2018-07-31T16:41:11.005Z,37.00
2018-07-31T16:46:13.494Z,37.20
2018-07-31T16:51:16.790Z,36.80
2018-07-31T16:56:19.241Z,36.80
2018-07-31T17:01:21.716Z,36.50
2018-07-31T17:06:24.209Z,36.70
2018-07-31T17:11:26.692Z,36.20
2018-07-31T17:16:29.185Z,35.90
2018-07-31T17:21:31.671Z,37.10
2018-07-31T17:26:34.146Z,39.20
2018-07-31T17:31:36.631Z,39.50
2018-07-31T17:36:39.112Z,39.90
2018-07-31T17:41:41.601Z,40.10
2018-07-31T17:46:44.084Z,41.00
2018-07-31T17:51:46.570Z,41.60
2018-07-31T17:56:49.333Z,42.30
2018-07-31T18:01:51.877Z,42.90
2018-07-31T18:06:54.371Z,43.30
2018-07-31T18:11:56.973Z,43.60
2018-07-31T18:17:00.224Z,44.30
2018-07-31T18:22:02.789Z,44.20
2018-07-31T18:27:05.283Z,44.40
2018-07-31T18:32:07.884Z,44.80
2018-07-31T18:37:10.393Z,46.00
2018-07-31T18:42:12.994Z,46.40
2018-07-31T18:47:15.532Z,46.40
2018-07-31T18:52:17.986Z,46.60
2018-07-31T18:57:20.574Z,46.40
2018-07-31T19:02:23.824Z,46.40
2018-07-31T19:07:26.305Z,46.30
2018-07-31T19:12:28.788Z,46.60
2018-07-31T19:17:31.297Z,46.80
2018-07-31T19:22:33.786Z,47.10
2018-07-31T19:27:36.304Z,47.40
2018-07-31T19:32:38.792Z,49.40
2018-07-31T19:37:41.264Z,49.80
2018-07-31T19:42:43.748Z,50.40
2018-07-31T19:47:46.311Z,50.20
2018-07-31T19:52:48.788Z,50.40
2018-07-31T19:57:51.276Z,50.40
2018-07-31T20:02:54.527Z,50.70
2018-07-31T20:07:57.013Z,50.60
2018-07-31T20:12:59.493Z,50.40
2018-07-31T20:18:01.981Z,50.70
2018-07-31T20:23:04.459Z,50.80
2018-07-31T20:28:06.949Z,50.80
2018-07-31T20:33:09.438Z,50.90
2018-07-31T20:38:11.921Z,51.00
2018-07-31T20:43:14.452Z,51.10
2018-07-31T20:48:16.876Z,51.10
2018-07-31T20:53:19.357Z,51.20
2018-07-31T20:58:22.604Z,51.90
2018-07-31T21:03:25.082Z,51.80
2018-07-31T21:08:27.570Z,51.90
2018-07-31T21:13:30.045Z,51.70
2018-07-31T21:18:32.532Z,52.30
2018-07-31T21:23:35.009Z,52.40
2018-07-31T21:28:37.490Z,52.60
2018-07-31T21:33:39.978Z,53.10
2018-07-31T21:38:42.470Z,53.00
2018-07-31T21:43:44.949Z,53.10
2018-07-31T21:48:47.428Z,53.10
2018-07-31T21:53:49.909Z,53.20
2018-07-31T21:58:52.393Z,53.30
2018-07-31T22:03:54.885Z,53.60
2018-07-31T22:08:57.369Z,53.80
2018-07-31T22:13:59.905Z,53.90
2018-07-31T22:19:02.340Z,54.10
2018-07-31T22:24:04.824Z,54.30
2018-07-31T22:29:07.305Z,54.60
2018-07-31T22:34:09.792Z,54.30
2018-07-31T22:39:12.272Z,53.50
2018-07-31T22:44:14.753Z,56.50
2018-07-31T22:49:17.233Z,58.50
2018-07-31T22:54:19.733Z,62.90
2018-07-31T22:59:22.228Z,63.00
2018-07-31T23:04:24.742Z,64.50
2018-07-31T23:09:27.234Z,64.10
2018-07-31T23:14:29.713Z,63.90
2018-07-31T23:19:32.198Z,63.90
2018-07-31T23:24:35.449Z,65.50
2018-07-31T23:29:37.955Z,65.50
2018-07-31T23:34:40.452Z,65.80
2018-07-31T23:39:42.940Z,66.50
2018-07-31T23:44:45.448Z,67.10
2018-07-31T23:49:47.961Z,66.50
2018-07-31T23:54:50.445Z,66.70
2018-07-31T23:59:52.938Z,66.80
